Algoa, Arkansas
Current Conditions -  °F | °C
As of 1:56 PM on Wednesday 28 Jan 2015 (Local Time) from KM19 Reporting Station
Clear Clear  
Wind Chill: 13°   Ceiling: Unl
Heat Index: 13°   Visibility: 10mi
Dew Point:   Wind: 14mph
Humidity: 47%   Direction: 160°SSE
Pressure: 30.17"   Gusts: NA
Location:  35.5678°N, 91.2073°W
Report Text: KM19 281956Z AUTO 16012KT 10SM CLR 13/02 A3017 RMK AO2 T01330022 SLP216
Loading
Personal Weather Stations






























Interactive Weather Map New forecast layout! Learn more

10-Day Weather Forecast

Advertisements
Track Severe Weather on mobile